Time;durP1;ratioP1;P1;durP2;ratioP2;P2;SDS_P1;SDS_P2;PMS_P1;PMS_P2;Temp;Humidity;BMP_temperature;BMP_pressure;BME280_temperature;BME280_humidity;BME280_pressure;Samples;Min_cycle;Max_cycle;Signal;HPM_P1;HPM_P2
2022/06/03 00:00:47;;;;;;;5.20;4.00;;;;;;;9.62;62.51;100867.15;130213;1270;108775;-75
2022/06/03 00:04:16;;;;;;;5.10;3.90;;;;;;;9.54;62.56;100865.81;130183;1271;108732;-76
2022/06/03 00:07:42;;;;;;;4.20;3.70;;;;;;;9.49;62.60;100872.10;130154;1271;108731;-76
2022/06/03 00:11:18;;;;;;;3.70;3.40;;;;;;;9.47;62.71;100872.83;130174;1271;108768;-75
2022/06/03 00:14:46;;;;;;;5.60;3.90;;;;;;;9.47;62.83;100877.45;130204;1271;108778;-75
2022/06/03 00:18:16;;;;;;;8.40;4.20;;;;;;;9.48;62.68;100877.05;130200;1270;108682;-75
2022/06/03 00:21:49;;;;;;;4.90;3.70;;;;;;;9.46;62.79;100880.23;130258;1269;108850;-75
2022/06/03 00:25:11;;;;;;;8.20;4.30;;;;;;;9.43;62.88;100876.35;130274;1271;108866;-76
2022/06/03 00:28:38;;;;;;;5.80;4.30;;;;;;;9.41;62.89;100877.42;130183;1271;108809;-75
2022/06/03 00:32:12;;;;;;;5.10;4.50;;;;;;;9.38;62.75;100875.76;130179;1271;108736;-75
2022/06/03 00:36:00;;;;;;;9.30;4.20;;;;;;;9.30;62.97;100877.30;130218;1271;108697;-74
2022/06/03 00:39:20;;;;;;;7.40;4.20;;;;;;;9.27;62.92;100877.89;129911;1271;108666;-75
2022/06/03 00:43:01;;;;;;;5.50;4.10;;;;;;;9.24;63.03;100874.07;130179;1271;108780;-75
2022/06/03 00:46:22;;;;;;;5.30;4.10;;;;;;;9.19;62.96;100872.68;130243;1269;108577;-75
2022/06/03 00:49:46;;;;;;;5.40;4.30;;;;;;;9.13;63.08;100872.16;130292;1270;108906;-73
2022/06/03 00:53:22;;;;;;;4.90;4.40;;;;;;;9.04;63.12;100872.86;130229;1269;108636;-74
2022/06/03 00:56:48;;;;;;;5.00;3.80;;;;;;;9.02;63.29;100874.63;130202;1269;108826;-73
2022/06/03 01:00:10;;;;;;;5.50;4.40;;;;;;;9.01;63.19;100876.16;129935;1269;440060;-74
2022/06/03 01:03:23;;;;;;;6.30;4.60;;;;;;;8.98;63.31;100879.61;130180;1271;108741;-76
2022/06/03 01:06:42;;;;;;;6.10;4.80;;;;;;;8.94;63.31;100878.90;130217;1271;108746;-76
2022/06/03 01:10:07;;;;;;;5.30;4.20;;;;;;;8.89;63.49;100876.60;130213;1269;107516;-78
2022/06/03 01:13:30;;;;;;;4.70;4.00;;;;;;;8.85;63.49;100873.77;130238;1269;108825;-77
2022/06/03 01:17:00;;;;;;;5.10;4.50;;;;;;;8.85;63.61;100876.77;130259;1269;108979;-79
2022/06/03 01:20:34;;;;;;;5.40;4.40;;;;;;;8.88;63.72;100872.98;130263;1271;108875;-77
2022/06/03 01:24:12;;;;;;;6.00;5.00;;;;;;;8.94;63.55;100870.33;130267;1269;108867;-78
2022/06/03 01:28:08;;;;;;;6.60;5.30;;;;;;;8.94;63.57;100872.68;130151;1270;108827;-74
2022/06/03 01:31:48;;;;;;;6.50;5.10;;;;;;;8.90;63.75;100869.29;129990;1270;108713;-75
2022/06/03 01:35:35;;;;;;;7.10;5.50;;;;;;;8.84;63.72;100868.64;130190;1269;108478;-76
2022/06/03 01:39:02;;;;;;;7.30;5.50;;;;;;;8.79;63.69;100868.77;130140;1271;108771;-75
2022/06/03 01:42:33;;;;;;;7.90;5.30;;;;;;;8.71;63.68;100865.84;130153;1271;108750;-76
2022/06/03 01:46:00;;;;;;;6.60;5.80;;;;;;;8.67;63.80;100865.09;130257;1271;108868;-78
2022/06/03 01:49:31;;;;;;;9.30;5.80;;;;;;;8.62;63.51;100865.69;129731;1271;108806;-76
2022/06/03 01:53:05;;;;;;;6.60;5.60;;;;;;;8.55;63.73;100864.65;129906;1271;108925;-75
2022/06/03 01:56:35;;;;;;;7.00;5.70;;;;;;;8.50;63.83;100868.09;129898;1271;108974;-75
2022/06/03 02:00:08;;;;;;;7.20;5.50;;;;;;;8.48;63.93;100869.48;129938;1271;108850;-75
2022/06/03 02:03:32;;;;;;;6.30;5.40;;;;;;;8.47;63.93;100868.66;129993;1271;108743;-74
2022/06/03 02:07:16;;;;;;;6.90;6.00;;;;;;;8.43;64.02;100869.38;129957;1271;107207;-75
2022/06/03 02:10:40;;;;;;;7.60;5.40;;;;;;;8.38;63.98;100869.54;129965;1271;108776;-76
2022/06/03 02:14:25;;;;;;;8.60;5.30;;;;;;;8.36;64.17;100868.10;129964;1271;108677;-76
2022/06/03 02:18:04;;;;;;;6.80;5.60;;;;;;;8.42;64.27;100866.10;129926;1271;108844;-76
2022/06/03 02:21:35;;;;;;;7.90;5.60;;;;;;;8.46;64.36;100866.11;129899;1271;108693;-75
2022/06/03 02:24:56;;;;;;;8.80;5.90;;;;;;;8.49;64.15;100868.35;129981;1271;108905;-75
2022/06/03 02:28:19;;;;;;;8.00;6.00;;;;;;;8.52;64.17;100866.54;129955;1271;108836;-75
2022/06/03 02:31:44;;;;;;;7.60;5.70;;;;;;;8.53;64.09;100866.40;129974;1271;108712;-75
2022/06/03 02:35:07;;;;;;;8.70;6.30;;;;;;;8.52;64.15;100871.48;130257;1271;107668;-72
2022/06/03 02:38:36;;;;;;;8.70;6.30;;;;;;;8.52;64.20;100868.63;129943;1271;108149;-75
2022/06/03 02:42:06;;;;;;;6.60;5.70;;;;;;;8.53;64.27;100865.91;129933;1271;108745;-74
2022/06/03 02:45:37;;;;;;;7.30;6.40;;;;;;;8.51;64.15;100867.66;129953;1271;108812;-73
2022/06/03 02:49:27;;;;;;;8.90;6.20;;;;;;;8.48;64.30;100868.45;130197;1270;108845;-75
2022/06/03 02:53:08;;;;;;;7.50;6.30;;;;;;;8.48;64.29;100870.89;130154;1271;108662;-74
2022/06/03 02:56:40;;;;;;;7.10;5.80;;;;;;;8.50;64.41;100868.30;129801;1271;108390;-74
2022/06/03 03:00:13;;;;;;;7.40;5.60;;;;;;;8.50;64.50;100875.75;130155;1271;109457;-73
2022/06/03 03:03:52;;;;;;;6.90;5.70;;;;;;;8.50;64.52;100876.98;130260;1270;108599;-72
2022/06/03 03:07:32;;;;;;;5.90;4.80;;;;;;;8.51;64.57;100876.54;130225;1271;108670;-73
2022/06/03 03:10:59;;;;;;;9.10;5.30;;;;;;;8.57;64.89;100880.77;130181;1271;108654;-71
2022/06/03 03:14:36;;;;;;;6.10;5.30;;;;;;;8.70;64.85;100880.17;130225;1270;108703;-72
2022/06/03 03:18:15;;;;;;;7.20;5.30;;;;;;;9.00;64.73;100885.15;130032;1270;108934;-71
2022/06/03 03:21:42;;;;;;;5.80;5.10;;;;;;;9.39;64.77;100889.64;130099;1270;108774;-73
2022/06/03 03:25:10;;;;;;;7.90;5.60;;;;;;;9.76;64.55;100895.73;130105;1270;108786;-73
2022/06/03 03:28:50;;;;;;;7.20;5.10;;;;;;;10.06;64.50;100901.34;130129;1270;107493;-73
2022/06/03 03:32:23;;;;;;;6.30;5.50;;;;;;;10.38;64.28;100897.70;130098;1270;107937;-73
2022/06/03 03:35:46;;;;;;;7.80;5.40;;;;;;;10.76;64.42;100901.03;129767;1270;109640;-72
2022/06/03 03:39:25;;;;;;;6.60;5.40;;;;;;;11.13;64.22;100906.60;130016;1270;108933;-72
2022/06/03 03:43:17;;;;;;;6.90;4.90;;;;;;;11.50;63.91;100903.73;130073;1270;108559;-73
2022/06/03 03:47:02;;;;;;;5.30;4.30;;;;;;;11.88;64.11;100907.27;129962;1271;108944;-71
2022/06/03 03:50:26;;;;;;;5.30;4.60;;;;;;;12.27;63.73;100910.23;130076;1270;108700;-72
2022/06/03 03:54:07;;;;;;;5.60;4.70;;;;;;;12.60;63.71;100912.35;130067;1270;108806;-73
2022/06/03 03:57:48;;;;;;;5.60;4.50;;;;;;;12.95;63.62;100916.42;130105;1270;108800;-71
2022/06/03 04:01:23;;;;;;;6.60;4.90;;;;;;;13.25;63.55;100922.13;129774;1270;108692;-71
2022/06/03 04:05:06;;;;;;;5.90;5.20;;;;;;;13.57;63.55;100920.92;130073;1270;108923;-72
2022/06/03 04:08:45;;;;;;;6.00;5.30;;;;;;;13.89;63.66;100918.08;130164;1270;108246;-70
2022/06/03 04:12:07;;;;;;;5.00;4.50;;;;;;;14.18;63.72;100915.45;130029;1270;108503;-71
2022/06/03 04:15:54;;;;;;;5.00;4.50;;;;;;;14.45;63.72;100918.29;130129;1270;108692;-73
2022/06/03 04:19:40;;;;;;;6.60;4.30;;;;;;;14.78;63.92;100917.33;130046;1270;106831;-72
2022/06/03 04:23:15;;;;;;;5.70;5.10;;;;;;;15.11;63.70;100920.26;130226;1270;108717;-73
2022/06/03 04:26:46;;;;;;;5.90;5.10;;;;;;;15.38;63.58;100927.34;130216;1270;108693;-74
2022/06/03 04:30:31;;;;;;;6.00;5.50;;;;;;;15.61;63.69;100921.23;130275;1271;108984;-74
2022/06/03 04:34:22;;;;;;;7.10;5.60;;;;;;;15.84;63.77;100924.45;130203;1271;108761;-73
2022/06/03 04:37:53;;;;;;;5.60;5.10;;;;;;;16.13;63.77;100919.84;130188;1271;108659;-73
2022/06/03 04:41:40;;;;;;;5.20;4.70;;;;;;;16.35;63.84;100926.42;130158;1271;108914;-73
2022/06/03 04:45:27;;;;;;;5.10;4.60;;;;;;;16.53;63.69;100929.05;130194;1271;108784;-73
2022/06/03 04:49:07;;;;;;;6.40;5.20;;;;;;;16.70;63.68;100928.02;130260;1271;108874;-75
2022/06/03 04:53:08;;;;;;;5.70;5.20;;;;;;;16.82;63.44;100924.70;130874;1271;108661;-74
2022/06/03 04:56:56;;;;;;;5.60;4.70;;;;;;;16.91;63.43;100930.83;130230;1270;108646;-74
2022/06/03 05:00:44;;;;;;;5.20;4.70;;;;;;;17.07;63.33;100935.45;130222;1270;108701;-73
2022/06/03 05:04:15;;;;;;;5.60;5.00;;;;;;;17.21;63.34;100936.11;130145;1270;108921;-74
2022/06/03 05:07:53;;;;;;;6.60;5.40;;;;;;;17.34;63.19;100936.16;130136;1270;108727;-73
2022/06/03 05:11:47;;;;;;;5.60;5.00;;;;;;;17.44;62.85;100940.87;129982;1271;108744;-73
2022/06/03 05:15:20;;;;;;;6.20;5.40;;;;;;;17.56;62.87;100946.12;130054;1270;108853;-73
2022/06/03 05:19:08;;;;;;;6.10;5.30;;;;;;;17.67;62.79;100947.14;130101;1270;108758;-73
2022/06/03 05:22:39;;;;;;;6.00;5.50;;;;;;;17.78;62.53;100945.80;130125;1270;108848;-73
2022/06/03 05:26:20;;;;;;;6.10;5.50;;;;;;;17.90;62.45;100941.02;130149;1270;108782;-73
2022/06/03 05:29:47;;;;;;;6.50;5.90;;;;;;;18.00;62.25;100946.78;130208;1270;108924;-73
2022/06/03 05:33:25;;;;;;;6.40;5.60;;;;;;;18.10;62.26;100950.50;130167;1270;108984;-73
2022/06/03 05:37:01;;;;;;;7.00;5.50;;;;;;;18.14;62.06;100957.06;130183;1270;108913;-73
2022/06/03 05:40:20;;;;;;;7.30;6.00;;;;;;;18.17;61.89;100959.71;130176;1271;107750;-73
2022/06/03 05:43:59;;;;;;;6.50;5.90;;;;;;;18.21;61.49;100961.44;130204;1271;108642;-73
2022/06/03 05:47:11;;;;;;;6.60;5.90;;;;;;;18.27;61.41;100958.34;130180;1271;108916;-73
2022/06/03 05:50:23;;;;;;;7.20;6.20;;;;;;;18.30;61.10;100961.03;130239;1271;108725;-74
2022/06/03 05:53:38;;;;;;;7.60;6.80;;;;;;;18.31;61.16;100958.73;130187;1271;108667;-73
2022/06/03 05:56:53;;;;;;;7.20;6.30;;;;;;;18.33;60.98;100957.97;130218;1270;108605;-73
2022/06/03 06:00:13;;;;;;;7.50;6.80;;;;;;;18.34;61.11;100954.58;130184;1270;107064;-73
2022/06/03 06:03:29;;;;;;;7.00;6.00;;;;;;;18.32;61.04;100960.04;130242;1269;108778;-74
2022/06/03 06:06:39;;;;;;;8.10;7.10;;;;;;;18.33;61.08;100959.63;130216;1270;108845;-73
2022/06/03 06:09:55;;;;;;;8.30;6.80;;;;;;;18.32;61.23;100958.44;130188;1271;108953;-73
2022/06/03 06:13:21;;;;;;;7.70;6.40;;;;;;;18.33;61.24;100961.75;130189;1271;108963;-73
2022/06/03 06:16:31;;;;;;;7.10;6.40;;;;;;;18.34;61.24;100958.07;130215;1270;108051;-73
2022/06/03 06:19:49;;;;;;;7.80;6.10;;;;;;;18.34;61.01;100959.11;130195;1271;108767;-73
2022/06/03 06:23:02;;;;;;;8.50;6.40;;;;;;;18.36;61.11;100960.13;130194;1271;108873;-73
2022/06/03 06:26:27;;;;;;;6.70;6.00;;;;;;;18.36;60.94;100963.58;130176;1269;107672;-73
2022/06/03 06:29:54;;;;;;;6.80;6.10;;;;;;;18.35;60.74;100966.52;130220;1270;108865;-73
2022/06/03 06:33:54;;;;;;;6.60;5.90;;;;;;;18.34;60.82;100966.46;130222;1271;107333;-73
2022/06/03 06:37:22;;;;;;;9.70;6.20;;;;;;;18.35;60.51;100963.81;129705;1271;108757;-73
2022/06/03 06:40:41;;;;;;;6.50;5.80;;;;;;;18.35;60.32;100967.23;130246;1271;108903;-73
2022/06/03 06:43:52;;;;;;;6.20;5.60;;;;;;;18.38;60.29;100970.36;130160;1270;108787;-73
2022/06/03 06:47:05;;;;;;;5.50;5.00;;;;;;;18.38;60.21;100972.73;130225;1270;108556;-73
2022/06/03 06:50:20;;;;;;;6.10;5.50;;;;;;;18.39;60.05;100969.81;130220;1270;108934;-73
2022/06/03 06:53:36;;;;;;;7.80;5.50;;;;;;;18.42;60.05;100967.28;130225;1271;108783;-73
2022/06/03 06:56:48;;;;;;;5.80;5.20;;;;;;;18.44;59.83;100964.88;130238;1271;108902;-73
2022/06/03 07:00:04;;;;;;;5.30;4.80;;;;;;;18.47;59.81;100964.27;130200;1270;108654;-73
2022/06/03 07:03:18;;;;;;;5.90;5.40;;;;;;;18.50;59.50;100961.87;130186;1271;108574;-73
2022/06/03 07:06:34;;;;;;;6.20;5.00;;;;;;;18.53;59.35;100962.35;130218;1271;109569;-73
2022/06/03 07:09:49;;;;;;;5.30;4.80;;;;;;;18.55;58.94;100954.70;130219;1271;108872;-73
2022/06/03 07:13:02;;;;;;;5.00;4.50;;;;;;;18.58;58.69;100951.51;130204;1271;108727;-73
2022/06/03 07:19:53;;;;;;;4.40;4.00;;;;;;;18.71;59.02;100948.94;130114;1271;109623;-73
2022/06/03 07:23:06;;;;;;;5.30;4.00;;;;;;;18.78;58.70;100951.05;130190;1270;108893;-73
2022/06/03 07:26:21;;;;;;;5.30;4.70;;;;;;;18.85;58.64;100947.00;130193;1269;108852;-73
2022/06/03 07:29:39;;;;;;;4.30;3.90;;;;;;;18.89;58.17;100940.93;130195;1270;108901;-74
2022/06/03 07:32:50;;;;;;;3.90;3.40;;;;;;;18.92;57.39;100939.92;130221;1270;108665;-73
2022/06/03 07:36:01;;;;;;;4.20;3.80;;;;;;;18.98;58.01;100937.55;130233;1269;108730;-73
2022/06/03 07:39:27;;;;;;;4.20;3.60;;;;;;;19.07;57.84;100929.96;130210;1271;108680;-73
2022/06/03 07:42:41;;;;;;;4.00;3.60;;;;;;;19.15;57.32;100931.80;130175;1269;108738;-73
2022/06/03 07:45:52;;;;;;;4.40;3.90;;;;;;;19.21;57.36;100930.48;130218;1271;108872;-74
2022/06/03 07:48:58;;;;;;;3.70;3.40;;;;;;;19.27;57.00;100933.54;130193;1271;108655;-73
2022/06/03 07:52:08;;;;;;;2.80;2.60;;;;;;;19.32;56.62;100935.42;130189;1270;109266;-74
2022/06/03 07:55:17;;;;;;;3.00;2.80;;;;;;;19.41;56.62;100939.58;130200;1270;109134;-73
2022/06/03 07:58:25;;;;;;;2.40;2.20;;;;;;;19.51;56.02;100940.97;130188;1271;108725;-73
2022/06/03 08:01:34;;;;;;;1.90;1.80;;;;;;;19.60;55.48;100942.75;130189;1270;108893;-73
2022/06/03 08:04:41;;;;;;;2.30;2.10;;;;;;;19.68;55.06;100944.67;130166;1271;108746;-73
2022/06/03 08:11:28;;;;;;;3.60;2.30;;;;;;;19.89;54.27;100941.58;130180;1271;108846;-73
2022/06/03 08:14:33;;;;;;;2.90;2.50;;;;;;;20.03;54.05;100937.01;130227;1269;108756;-73
2022/06/03 08:17:39;;;;;;;2.60;2.40;;;;;;;20.15;54.26;100939.16;130225;1271;108856;-73
2022/06/03 08:20:51;;;;;;;2.90;2.50;;;;;;;20.31;53.69;100941.05;130191;1270;109852;-73
2022/06/03 08:23:59;;;;;;;3.40;3.00;;;;;;;20.46;53.34;100936.70;130191;1270;108812;-73
2022/06/03 08:27:10;;;;;;;2.60;2.40;;;;;;;20.68;53.49;100941.48;130236;1271;108859;-73
2022/06/03 08:30:21;;;;;;;2.50;2.30;;;;;;;20.91;53.42;100942.23;130199;1271;108635;-73
2022/06/03 08:33:35;;;;;;;2.70;2.20;;;;;;;21.05;52.70;100937.67;130192;1270;108672;-73
2022/06/03 08:36:42;;;;;;;1.80;1.70;;;;;;;21.18;52.29;100936.27;130179;1270;108728;-73
2022/06/03 08:39:50;;;;;;;1.90;1.80;;;;;;;21.28;51.89;100931.33;130162;1270;108828;-73
2022/06/03 08:43:07;;;;;;;3.50;2.00;;;;;;;21.39;51.42;100928.41;130145;1270;107632;-73
2022/06/03 08:46:17;;;;;;;2.10;1.80;;;;;;;21.46;51.24;100925.55;130223;1271;108966;-72
2022/06/03 08:49:38;;;;;;;2.20;2.00;;;;;;;21.40;51.01;100922.26;130174;1270;107081;-73
2022/06/03 08:52:51;;;;;;;2.40;2.00;;;;;;;21.43;50.72;100920.79;130176;1270;108787;-72
2022/06/03 08:56:00;;;;;;;1.90;1.40;;;;;;;21.54;50.71;100922.27;130203;1270;108943;-73
2022/06/03 08:59:12;;;;;;;3.10;1.50;;;;;;;21.61;49.87;100923.84;130205;1270;108830;-73
2022/06/03 09:02:28;;;;;;;2.80;1.80;;;;;;;21.55;49.71;100923.76;130184;1270;107148;-73
2022/06/03 09:05:39;;;;;;;1.80;1.60;;;;;;;21.30;48.57;100922.17;130233;1270;108761;-72
2022/06/03 09:08:52;;;;;;;2.00;1.90;;;;;;;21.27;49.61;100924.89;130223;1270;108915;-73
2022/06/03 09:12:07;;;;;;;2.80;1.70;;;;;;;21.37;49.23;100923.73;130214;1270;108731;-73
2022/06/03 09:15:23;;;;;;;2.30;1.70;;;;;;;21.32;48.77;100926.92;130175;1270;108837;-73
2022/06/03 09:18:33;;;;;;;1.70;1.60;;;;;;;21.35;48.44;100925.90;130179;1271;108762;-73
2022/06/03 09:21:43;;;;;;;2.00;1.80;;;;;;;21.41;48.31;100925.52;130095;1270;108808;-73
2022/06/03 09:24:49;;;;;;;3.10;1.70;;;;;;;21.30;48.45;100927.48;130029;1270;108502;-73
2022/06/03 09:27:55;;;;;;;2.00;1.90;;;;;;;21.37;48.23;100928.27;130017;1270;107705;-73
2022/06/03 09:31:05;;;;;;;2.30;1.70;;;;;;;21.48;48.01;100925.98;130076;1270;108587;-73
2022/06/03 09:34:12;;;;;;;1.70;1.60;;;;;;;21.58;47.84;100923.51;130260;1271;108256;-73
2022/06/03 09:37:21;;;;;;;1.50;1.30;;;;;;;21.68;47.66;100924.52;130150;1270;108749;-73
2022/06/03 09:40:31;;;;;;;1.60;1.50;;;;;;;21.79;47.09;100921.56;130044;1270;108870;-73
2022/06/03 09:43:39;;;;;;;2.10;1.80;;;;;;;21.71;46.85;100926.34;130020;1270;108696;-73
2022/06/03 09:46:45;;;;;;;3.60;1.70;;;;;;;21.70;47.00;100916.22;130095;1270;108837;-74
2022/06/03 09:49:53;;;;;;;3.20;2.10;;;;;;;21.79;47.07;100915.93;130175;1271;108804;-73
2022/06/03 09:53:04;;;;;;;2.50;1.90;;;;;;;21.91;46.83;100916.83;130162;1270;108689;-73
2022/06/03 09:56:18;;;;;;;1.70;1.60;;;;;;;21.87;44.50;100906.84;130215;1271;108975;-73
2022/06/03 09:59:26;;;;;;;2.30;1.70;;;;;;;21.75;45.37;100909.46;130134;1271;107719;-73
2022/06/03 10:02:32;;;;;;;2.80;1.40;;;;;;;21.75;46.11;100913.98;130103;1270;108905;-73
2022/06/03 10:05:38;;;;;;;1.80;1.70;;;;;;;21.86;45.74;100910.82;130064;1270;108946;-73
2022/06/03 10:15:41;;;;;;;1.70;1.60;;;;;;;22.13;45.42;100905.91;130036;1271;108721;-73
2022/06/03 10:18:49;;;;;;;2.10;1.40;;;;;;;22.07;44.88;100900.77;130199;1270;108935;-73
2022/06/03 10:21:56;;;;;;;1.70;1.30;;;;;;;22.01;44.96;100899.21;130021;1270;108844;-73
2022/06/03 10:25:01;;;;;;;1.50;1.40;;;;;;;21.81;44.71;100901.67;130199;1270;108855;-74
2022/06/03 10:28:09;;;;;;;3.30;2.10;;;;;;;21.75;44.94;100902.14;130010;1271;108670;-74
2022/06/03 10:31:17;;;;;;;1.80;1.60;;;;;;;21.79;44.81;100904.00;130056;1270;108654;-73
2022/06/03 10:34:27;;;;;;;2.30;1.50;;;;;;;21.82;44.66;100895.45;130073;1271;107446;-73
2022/06/03 10:37:34;;;;;;;1.60;1.40;;;;;;;21.88;44.69;100896.89;130152;1270;108884;-73
2022/06/03 10:40:43;;;;;;;1.90;1.70;;;;;;;21.95;44.84;100892.88;130098;1270;107728;-73
2022/06/03 10:43:50;;;;;;;3.90;1.80;;;;;;;22.01;44.45;100884.66;130028;1270;108638;-75
2022/06/03 10:47:02;;;;;;;1.70;1.50;;;;;;;22.02;44.36;100876.95;130061;1270;108861;-73
2022/06/03 10:50:12;;;;;;;1.70;1.60;;;;;;;22.01;44.11;100880.44;130230;1271;107066;-73
2022/06/03 11:03:54;;;;;;;1.50;1.30;;;;;;;22.27;43.63;100864.07;130152;1271;108741;-74
2022/06/03 11:07:02;;;;;;;1.60;1.50;;;;;;;22.30;43.60;100861.96;130209;1271;109233;-73
2022/06/03 11:10:10;;;;;;;1.50;1.40;;;;;;;22.32;43.64;100857.30;130155;1271;108845;-73
2022/06/03 11:13:26;;;;;;;1.70;1.60;;;;;;;22.30;43.14;100854.02;130126;1271;108154;-73
2022/06/03 11:16:31;;;;;;;1.70;1.50;;;;;;;22.18;41.02;100844.80;130148;1271;108861;-73
2022/06/03 11:19:40;;;;;;;2.70;1.60;;;;;;;22.07;42.98;100845.75;130080;1271;108618;-74
2022/06/03 11:22:45;;;;;;;2.60;1.60;;;;;;;22.09;43.43;100840.36;130161;1271;108829;-74
2022/06/03 11:25:53;;;;;;;2.50;1.90;;;;;;;22.11;42.95;100829.94;130065;1270;107596;-73
2022/06/03 11:29:03;;;;;;;1.60;1.50;;;;;;;22.13;43.42;100827.20;130124;1271;108956;-74
2022/06/03 11:32:12;;;;;;;1.80;1.70;;;;;;;22.16;43.36;100834.29;130145;1270;108853;-74
2022/06/03 11:35:38;;;;;;;1.90;1.70;;;;;;;22.17;43.10;100833.34;130134;1271;108870;-74
2022/06/03 11:38:49;;;;;;;2.00;1.70;;;;;;;22.19;43.09;100830.91;130222;1271;108630;-72
2022/06/03 11:42:00;;;;;;;2.20;1.50;;;;;;;22.18;43.12;100829.49;130205;1270;108808;-74
2022/06/03 11:45:12;;;;;;;2.00;1.80;;;;;;;22.21;43.06;100832.40;130063;1271;108851;-72
2022/06/03 11:48:22;;;;;;;2.00;1.70;;;;;;;22.20;42.60;100829.10;130156;1271;109013;-72
2022/06/03 11:51:28;;;;;;;1.80;1.60;;;;;;;22.18;42.46;100822.08;130148;1271;108865;-72
2022/06/03 11:54:33;;;;;;;1.80;1.60;;;;;;;22.16;42.35;100821.64;130100;1271;107621;-72
2022/06/03 11:57:47;;;;;;;1.80;1.70;;;;;;;22.16;42.44;100820.17;130122;1271;109565;-72
2022/06/03 12:00:58;;;;;;;1.50;1.40;;;;;;;22.16;42.38;100814.73;130195;1271;108861;-72
2022/06/03 12:04:14;;;;;;;1.70;1.60;;;;;;;22.18;42.23;100810.91;130199;1271;108683;-75
2022/06/03 12:07:32;;;;;;;1.70;1.50;;;;;;;22.18;42.11;100805.06;130197;1271;108835;-74
2022/06/03 12:10:47;;;;;;;2.10;1.90;;;;;;;22.21;42.57;100802.09;130138;1269;108686;-72
2022/06/03 12:14:13;;;;;;;1.90;1.80;;;;;;;22.26;42.43;100799.86;130187;1271;108817;-72
2022/06/03 12:17:29;;;;;;;1.80;1.50;;;;;;;22.29;42.41;100801.70;130236;1271;108708;-75
2022/06/03 12:20:52;;;;;;;2.30;1.60;;;;;;;22.34;42.22;100797.41;130243;1271;108707;-74
2022/06/03 12:24:18;;;;;;;1.70;1.60;;;;;;;22.37;42.33;100793.00;130157;1271;108687;-74
2022/06/03 12:27:28;;;;;;;1.70;1.60;;;;;;;22.45;42.81;100799.43;130130;1271;109027;-74
2022/06/03 12:30:43;;;;;;;1.80;1.70;;;;;;;22.51;42.46;100797.14;130175;1271;107550;-73
2022/06/03 12:33:57;;;;;;;1.70;1.60;;;;;;;22.52;42.48;100793.33;130173;1271;108836;-73
2022/06/03 12:37:22;;;;;;;2.60;1.60;;;;;;;22.56;41.92;100789.20;130057;1271;108970;-74
2022/06/03 12:40:36;;;;;;;2.00;1.70;;;;;;;22.56;41.85;100788.20;130189;1271;108555;-73
2022/06/03 12:44:01;;;;;;;2.20;1.90;;;;;;;22.51;41.76;100791.33;130141;1271;108705;-73
2022/06/03 12:47:29;;;;;;;2.10;1.80;;;;;;;22.45;41.00;100785.87;130161;1271;108648;-73
2022/06/03 12:51:01;;;;;;;1.90;1.50;;;;;;;22.42;41.32;100780.92;130170;1271;108876;-73
2022/06/03 12:54:16;;;;;;;2.90;1.70;;;;;;;22.47;41.82;100778.17;130186;1271;108727;-73
2022/06/03 12:57:24;;;;;;;2.00;1.80;;;;;;;22.48;41.37;100776.36;130125;1271;107769;-73
2022/06/03 13:00:33;;;;;;;1.80;1.50;;;;;;;22.31;41.32;100776.84;130053;1271;244772;-73
2022/06/03 13:03:44;;;;;;;1.50;1.40;;;;;;;22.30;41.21;100770.58;130165;1271;108925;-73
2022/06/03 13:07:16;;;;;;;1.60;1.50;;;;;;;22.23;41.24;100767.83;130132;1269;108358;-73
2022/06/03 13:10:29;;;;;;;2.20;1.70;;;;;;;22.14;41.77;100767.29;130133;1271;108754;-74
2022/06/03 13:14:07;;;;;;;2.50;1.50;;;;;;;22.05;41.87;100766.08;130190;1271;108745;-73
2022/06/03 13:17:49;;;;;;;2.20;1.40;;;;;;;22.11;41.85;100766.52;130139;1271;108918;-73
2022/06/03 13:21:18;;;;;;;1.90;1.70;;;;;;;22.20;41.47;100762.95;130183;1271;108681;-73
2022/06/03 13:24:25;;;;;;;2.60;1.80;;;;;;;22.28;41.39;100762.77;130151;1271;108634;-73
2022/06/03 13:27:33;;;;;;;2.10;1.70;;;;;;;22.24;40.74;100749.09;130268;1271;108768;-74
2022/06/03 13:30:39;;;;;;;2.00;1.70;;;;;;;22.24;41.55;100751.20;130225;1271;108748;-73
2022/06/03 13:34:16;;;;;;;1.90;1.80;;;;;;;22.25;41.06;100750.15;130205;1271;108719;-73
2022/06/03 13:37:30;;;;;;;1.60;1.50;;;;;;;22.29;41.29;100744.61;130185;1271;108556;-73
2022/06/03 13:40:37;;;;;;;1.80;1.50;;;;;;;22.33;40.79;100736.92;130199;1271;108572;-73
2022/06/03 13:44:07;;;;;;;1.60;1.50;;;;;;;22.34;40.96;100727.55;130161;1271;109119;-73
2022/06/03 13:47:22;;;;;;;1.90;1.50;;;;;;;22.34;39.84;100725.05;130232;1271;108625;-73
2022/06/03 13:50:35;;;;;;;1.90;1.60;;;;;;;22.28;40.51;100719.27;130236;1271;109482;-73
2022/06/03 13:53:50;;;;;;;1.90;1.70;;;;;;;22.32;40.93;100711.75;130200;1270;108700;-74
2022/06/03 13:57:02;;;;;;;1.80;1.40;;;;;;;22.41;41.32;100707.30;130095;1271;108721;-75
2022/06/03 14:00:26;;;;;;;1.80;1.60;;;;;;;22.46;40.82;100706.64;130257;1271;107887;-79
2022/06/03 14:03:35;;;;;;;1.50;1.40;;;;;;;22.47;41.00;100699.59;130141;1271;108643;-72
2022/06/03 14:06:45;;;;;;;3.90;1.50;;;;;;;22.42;40.73;100700.71;130021;1271;108655;-71
2022/06/03 14:09:53;;;;;;;1.80;1.30;;;;;;;22.43;41.07;100697.91;129979;1271;108689;-76
2022/06/03 14:13:11;;;;;;;1.70;1.50;;;;;;;22.47;41.10;100693.50;129973;1271;107705;-74
2022/06/03 14:16:21;;;;;;;1.70;1.60;;;;;;;22.54;40.95;100698.08;130062;1271;108711;-75
2022/06/03 14:19:40;;;;;;;1.50;1.40;;;;;;;22.60;41.23;100696.61;129991;1271;108692;-73
2022/06/03 14:22:52;;;;;;;1.50;1.40;;;;;;;22.65;41.09;100692.39;129999;1271;108685;-75
2022/06/03 14:26:02;;;;;;;1.40;1.30;;;;;;;22.65;40.39;100684.06;129968;1271;108676;-75
2022/06/03 14:29:12;;;;;;;2.20;1.50;;;;;;;22.62;40.60;100677.39;130031;1271;108955;-77
2022/06/03 14:32:22;;;;;;;1.60;1.50;;;;;;;22.64;40.50;100673.14;130057;1271;108654;-75
2022/06/03 14:35:31;;;;;;;1.70;1.50;;;;;;;22.65;40.42;100670.77;130086;1271;108703;-75
2022/06/03 14:38:42;;;;;;;2.10;1.60;;;;;;;22.67;40.66;100667.77;129914;1271;108731;-75
2022/06/03 14:41:53;;;;;;;1.40;1.30;;;;;;;22.67;40.39;100665.05;129963;1271;107126;-76
2022/06/03 14:45:00;;;;;;;1.30;1.20;;;;;;;22.66;40.66;100660.95;130191;1271;108670;-76
2022/06/03 14:48:11;;;;;;;1.60;1.50;;;;;;;22.65;39.46;100659.11;130113;1271;108680;-77
2022/06/03 14:51:28;;;;;;;1.40;1.30;;;;;;;22.57;39.21;100653.96;129952;1271;108955;-77
2022/06/03 14:54:38;;;;;;;2.20;1.50;;;;;;;22.54;39.62;100649.34;129983;1271;108828;-77
2022/06/03 14:57:51;;;;;;;1.70;1.40;;;;;;;22.57;39.62;100642.54;130020;1271;108695;-77
2022/06/03 15:01:16;;;;;;;1.30;1.20;;;;;;;22.51;39.02;100633.59;129936;1271;108638;-77
2022/06/03 15:04:37;;;;;;;1.40;1.30;;;;;;;22.51;39.67;100626.18;129978;1271;108901;-77
2022/06/03 15:07:49;;;;;;;1.60;1.30;;;;;;;22.49;38.36;100615.02;130084;1271;108708;-77
2022/06/03 15:11:07;;;;;;;1.30;1.20;;;;;;;22.46;39.05;100606.27;130151;1271;109142;-77
2022/06/03 15:14:15;;;;;;;1.60;1.50;;;;;;;22.50;39.33;100608.75;130138;1271;108828;-77
2022/06/03 15:17:27;;;;;;;1.70;1.40;;;;;;;22.51;39.48;100608.95;130183;1270;109682;-77
2022/06/03 15:20:33;;;;;;;1.60;1.40;;;;;;;22.51;39.52;100608.45;130130;1271;108770;-77
2022/06/03 15:23:40;;;;;;;1.60;1.50;;;;;;;22.51;39.38;100609.42;130049;1271;108490;-81
2022/06/03 15:26:46;;;;;;;1.90;1.30;;;;;;;22.50;39.10;100609.18;130100;1271;108726;-77
2022/06/03 15:29:54;;;;;;;1.70;1.60;;;;;;;22.49;39.10;100603.95;130086;1271;109598;-75
2022/06/03 15:33:08;;;;;;;1.80;1.70;;;;;;;22.50;39.10;100599.39;130082;1270;108834;-75
2022/06/03 15:36:18;;;;;;;2.10;1.60;;;;;;;22.49;39.22;100600.94;130173;1271;108103;-74
2022/06/03 15:39:28;;;;;;;1.70;1.60;;;;;;;22.49;39.20;100600.73;130216;1271;108701;-76